createdAt,value
2018-11-11T00:00:48.883Z,59.62
2018-11-11T00:03:17.800Z,59.51
2018-11-11T00:05:46.834Z,59.06
2018-11-11T00:08:15.741Z,59.10
2018-11-11T00:10:44.613Z,59.49
2018-11-11T00:13:13.694Z,59.75
2018-11-11T00:15:42.621Z,60.33
2018-11-11T00:18:11.550Z,60.54
2018-11-11T00:20:40.418Z,60.32
2018-11-11T00:23:09.335Z,60.51
2018-11-11T00:25:38.357Z,60.77
2018-11-11T00:28:07.262Z,60.71
2018-11-11T00:30:36.141Z,60.16
2018-11-11T00:33:05.464Z,60.03
2018-11-11T00:35:34.372Z,60.04
2018-11-11T00:38:03.257Z,59.98
2018-11-11T00:40:38.735Z,60.80
2018-11-11T00:43:07.751Z,60.09
2018-11-11T00:45:36.676Z,60.53
2018-11-11T00:48:05.656Z,60.24
2018-11-11T00:50:34.574Z,60.02
2018-11-11T00:53:03.515Z,59.28
2018-11-11T00:55:38.472Z,59.68
2018-11-11T00:58:07.512Z,59.87
2018-11-11T01:00:36.365Z,60.21
2018-11-11T01:03:05.836Z,60.24
2018-11-11T01:05:34.735Z,60.05
2018-11-11T01:08:03.621Z,60.66
2018-11-11T01:10:32.596Z,60.51
2018-11-11T01:13:01.441Z,59.85
2018-11-11T01:15:30.344Z,59.92
2018-11-11T01:17:59.207Z,60.19
2018-11-11T01:20:28.314Z,60.42
2018-11-11T01:22:57.307Z,60.45
2018-11-11T01:25:26.335Z,60.41
2018-11-11T01:27:55.293Z,60.48
2018-11-11T01:30:24.246Z,59.93
2018-11-11T01:32:53.180Z,59.70
2018-11-11T01:35:22.098Z,59.27
2018-11-11T01:37:50.974Z,59.17
2018-11-11T01:40:19.848Z,59.25
2018-11-11T01:42:48.773Z,58.72
2018-11-11T01:45:18.835Z,58.54
2018-11-11T01:47:48.521Z,59.29
2018-11-11T01:50:17.520Z,59.09
2018-11-11T01:52:46.450Z,59.33
2018-11-11T01:55:15.549Z,59.17
2018-11-11T01:57:44.451Z,59.03
2018-11-11T02:00:15.593Z,59.69
2018-11-11T02:02:45.186Z,59.08
2018-11-11T02:05:14.522Z,59.57
2018-11-11T02:07:44.462Z,59.35
2018-11-11T02:10:13.397Z,59.17
2018-11-11T02:12:43.297Z,58.77
2018-11-11T02:15:13.491Z,58.88
2018-11-11T02:17:42.575Z,59.21
2018-11-11T02:20:20.076Z,59.26
2018-11-11T02:22:50.460Z,59.16
2018-11-11T02:25:19.400Z,59.27
2018-11-11T02:27:48.336Z,59.32
2018-11-11T02:30:18.527Z,59.11
2018-11-11T02:32:47.417Z,59.14
2018-11-11T02:35:16.316Z,58.96
2018-11-11T02:37:45.436Z,58.75
2018-11-11T02:40:15.488Z,59.08
2018-11-11T02:42:44.795Z,58.68
2018-11-11T02:45:14.790Z,59.15
2018-11-11T02:47:43.675Z,59.21
2018-11-11T02:50:14.752Z,59.02
2018-11-11T02:52:44.137Z,59.30
2018-11-11T02:55:13.689Z,59.01
2018-11-11T02:57:43.249Z,59.34
2018-11-11T03:00:14.037Z,59.00
2018-11-11T03:02:43.871Z,58.75
2018-11-11T03:05:13.939Z,58.72
2018-11-11T03:07:42.900Z,59.32
2018-11-11T03:10:12.867Z,59.59
2018-11-11T03:12:42.364Z,58.95
2018-11-11T03:15:12.390Z,59.09
2018-11-11T03:17:41.349Z,59.11
2018-11-11T03:20:11.061Z,59.49
2018-11-11T03:22:39.979Z,59.35
2018-11-11T03:25:10.773Z,59.17
2018-11-11T03:27:39.883Z,59.49
2018-11-11T03:30:10.542Z,59.56
2018-11-11T03:32:39.963Z,60.21
2018-11-11T03:35:10.697Z,60.18
2018-11-11T03:37:39.821Z,59.92
2018-11-11T03:40:12.158Z,59.93
2018-11-11T03:42:41.179Z,60.25
2018-11-11T03:45:12.075Z,59.89
2018-11-11T03:47:41.615Z,59.72
2018-11-11T03:50:11.131Z,59.73
2018-11-11T03:52:40.285Z,59.64
2018-11-11T03:55:09.792Z,59.49
2018-11-11T03:57:38.908Z,59.36
2018-11-11T04:00:09.525Z,59.04
2018-11-11T04:02:38.621Z,59.10
2018-11-11T04:05:08.667Z,58.94
2018-11-11T04:07:37.688Z,59.33
2018-11-11T04:10:08.602Z,58.96
2018-11-11T04:12:37.490Z,58.70
2018-11-11T04:15:07.893Z,58.73
2018-11-11T04:17:37.287Z,59.07
2018-11-11T04:20:07.389Z,59.15
2018-11-11T04:22:36.240Z,59.46
2018-11-11T04:25:05.257Z,58.98
2018-11-11T04:27:34.256Z,59.01
2018-11-11T04:30:03.241Z,59.50
2018-11-11T04:32:32.169Z,59.29
2018-11-11T04:35:01.080Z,59.19
2018-11-11T04:37:29.993Z,58.90
2018-11-11T04:39:59.102Z,59.36
2018-11-11T04:42:28.025Z,59.21
2018-11-11T04:44:57.053Z,59.04
2018-11-11T04:47:26.061Z,59.05
2018-11-11T04:49:54.986Z,59.17
2018-11-11T04:52:23.878Z,58.96
2018-11-11T04:54:52.753Z,59.15
2018-11-11T04:57:21.706Z,58.94
2018-11-11T04:59:50.748Z,58.89
2018-11-11T05:02:19.646Z,59.02
2018-11-11T05:04:48.659Z,59.25
2018-11-11T05:07:17.541Z,59.52
2018-11-11T05:09:46.426Z,59.09
2018-11-11T05:12:15.322Z,59.21
2018-11-11T05:14:44.210Z,59.34
2018-11-11T05:17:13.123Z,75.63
2018-11-11T05:19:41.994Z,64.57
2018-11-11T05:22:13.119Z,59.90
2018-11-11T05:24:42.023Z,58.55
2018-11-11T05:27:10.931Z,58.38
2018-11-11T05:29:39.847Z,58.56
2018-11-11T05:32:08.748Z,58.56
2018-11-11T05:34:37.673Z,58.15
2018-11-11T05:37:06.921Z,58.52
2018-11-11T05:39:35.804Z,58.56
2018-11-11T05:42:04.748Z,58.53
2018-11-11T05:44:33.681Z,58.38
2018-11-11T05:47:02.659Z,58.84
2018-11-11T05:49:31.616Z,59.17
2018-11-11T05:52:00.636Z,59.26
2018-11-11T05:54:29.535Z,59.76
2018-11-11T05:56:58.618Z,59.85
2018-11-11T05:59:27.480Z,59.92
2018-11-11T06:01:56.424Z,59.61
2018-11-11T06:04:25.514Z,59.64
2018-11-11T06:06:54.388Z,59.43
2018-11-11T06:09:23.271Z,59.91
2018-11-11T06:11:52.140Z,60.05
2018-11-11T06:14:21.071Z,60.03
2018-11-11T06:16:49.985Z,59.74
2018-11-11T06:19:18.938Z,59.42
2018-11-11T06:21:47.887Z,59.39
2018-11-11T06:24:17.049Z,59.34
2018-11-11T06:26:46.143Z,59.84
2018-11-11T06:29:15.082Z,59.65
2018-11-11T06:31:44.018Z,59.90
2018-11-11T06:34:13.384Z,59.69
2018-11-11T06:36:42.250Z,59.98
2018-11-11T06:39:12.315Z,59.83
2018-11-11T06:41:41.298Z,59.83
2018-11-11T06:44:10.436Z,59.49
2018-11-11T06:46:39.329Z,59.62
2018-11-11T06:49:08.301Z,59.23
2018-11-11T06:51:37.254Z,59.59
2018-11-11T06:54:06.345Z,59.34
2018-11-11T06:56:35.292Z,59.05
2018-11-11T06:59:04.264Z,59.35
2018-11-11T07:01:33.429Z,59.72
2018-11-11T07:04:03.442Z,59.94
2018-11-11T07:06:32.792Z,59.90
2018-11-11T07:09:01.847Z,59.76
2018-11-11T07:11:30.721Z,59.63
2018-11-11T07:13:59.707Z,60.46
2018-11-11T07:16:28.641Z,60.96
2018-11-11T07:18:57.576Z,61.30
2018-11-11T07:21:26.553Z,60.89
2018-11-11T07:23:55.509Z,61.09
2018-11-11T07:26:24.356Z,61.18
2018-11-11T07:28:53.327Z,60.70
2018-11-11T07:31:22.228Z,61.36
2018-11-11T07:33:51.105Z,60.80
2018-11-11T07:36:19.980Z,60.54
2018-11-11T07:38:49.011Z,60.40
2018-11-11T07:41:17.967Z,60.43
2018-11-11T07:43:46.970Z,60.36
2018-11-11T07:46:15.879Z,59.94
2018-11-11T07:48:44.811Z,60.08
2018-11-11T07:51:13.743Z,59.83
2018-11-11T07:53:42.703Z,65.69
2018-11-11T07:56:11.581Z,60.41
2018-11-11T07:58:40.572Z,59.45
2018-11-11T08:01:09.506Z,60.50
2018-11-11T08:03:38.439Z,60.14
2018-11-11T08:06:07.674Z,67.15
2018-11-11T08:08:36.626Z,88.42
2018-11-11T08:11:16.497Z,79.18
2018-11-11T08:13:45.350Z,59.73
2018-11-11T08:16:14.327Z,57.16
2018-11-11T08:18:43.369Z,57.03
2018-11-11T08:21:12.300Z,56.36
2018-11-11T08:23:41.220Z,56.98
2018-11-11T08:26:10.294Z,57.45
2018-11-11T08:28:39.414Z,57.92
2018-11-11T08:31:08.407Z,57.48
2018-11-11T08:33:37.361Z,57.31
2018-11-11T08:36:06.272Z,57.26
2018-11-11T08:38:35.457Z,57.47
2018-11-11T08:41:04.645Z,58.11
2018-11-11T08:43:33.609Z,58.81
2018-11-11T08:46:02.607Z,58.36
2018-11-11T08:48:31.603Z,58.58
2018-11-11T08:51:00.501Z,58.66
2018-11-11T08:53:29.410Z,58.04
2018-11-11T08:55:58.397Z,58.31
2018-11-11T08:58:27.348Z,57.46
2018-11-11T09:00:56.245Z,58.55
2018-11-11T09:03:25.602Z,58.09
2018-11-11T09:05:54.462Z,58.49
2018-11-11T09:08:23.363Z,58.07
2018-11-11T09:10:52.360Z,57.74
2018-11-11T09:13:21.350Z,57.72
2018-11-11T09:15:50.233Z,57.39
2018-11-11T09:18:19.257Z,56.67
2018-11-11T09:20:48.086Z,56.39
2018-11-11T09:23:17.860Z,56.68
2018-11-11T09:25:46.865Z,56.50
2018-11-11T09:28:15.735Z,57.19
2018-11-11T09:30:44.640Z,57.04
2018-11-11T09:33:13.554Z,57.11
2018-11-11T09:35:42.476Z,57.13
2018-11-11T09:38:11.375Z,57.08
2018-11-11T09:40:40.268Z,57.08
2018-11-11T09:43:09.212Z,56.56
2018-11-11T09:45:38.183Z,56.08
2018-11-11T09:48:07.286Z,55.90
2018-11-11T09:50:36.518Z,56.24
2018-11-11T09:53:05.557Z,55.58
2018-11-11T09:55:34.622Z,54.77
2018-11-11T09:58:03.630Z,55.22
2018-11-11T10:00:32.543Z,55.23
2018-11-11T10:03:08.264Z,55.30
2018-11-11T10:05:44.605Z,55.42
2018-11-11T10:08:19.993Z,54.94
2018-11-11T10:11:57.834Z,54.37
2018-11-11T10:16:34.182Z,54.10
2018-11-11T10:19:36.978Z,54.98
2018-11-11T10:23:13.076Z,54.67
2018-11-11T10:25:47.310Z,54.60
2018-11-11T10:28:20.131Z,54.57
2018-11-11T10:30:53.528Z,53.62
2018-11-11T10:33:30.747Z,53.66
2018-11-11T10:37:05.916Z,54.14
2018-11-11T10:39:38.617Z,54.02
2018-11-11T10:43:11.133Z,54.27
2018-11-11T10:45:55.640Z,54.14
2018-11-11T10:48:27.523Z,54.51
2018-11-11T10:50:58.796Z,54.44
2018-11-11T10:53:27.727Z,53.54
2018-11-11T10:55:56.721Z,53.93
2018-11-11T10:58:26.086Z,53.52
2018-11-11T11:01:00.059Z,53.52
2018-11-11T11:03:32.064Z,53.16
2018-11-11T11:06:01.772Z,52.57
2018-11-11T11:08:30.730Z,52.54
2018-11-11T11:10:59.765Z,52.69
2018-11-11T11:13:29.585Z,52.11
2018-11-11T11:15:59.132Z,52.31
2018-11-11T11:18:28.031Z,52.20
2018-11-11T11:20:56.949Z,52.87
2018-11-11T11:23:25.904Z,52.80
2018-11-11T11:25:54.796Z,53.22
2018-11-11T11:28:23.803Z,52.15
2018-11-11T11:30:52.725Z,52.36
2018-11-11T11:33:21.676Z,51.77
2018-11-11T11:35:50.684Z,51.44
2018-11-11T11:38:19.570Z,51.03
2018-11-11T11:40:48.536Z,51.19
2018-11-11T11:43:17.460Z,51.23
2018-11-11T11:45:46.422Z,51.41
2018-11-11T11:48:15.278Z,50.70
2018-11-11T11:50:44.191Z,50.31
2018-11-11T11:53:13.181Z,50.00
2018-11-11T11:55:42.121Z,50.60
2018-11-11T11:58:17.705Z,50.10
2018-11-11T12:00:46.585Z,50.04
2018-11-11T12:03:16.416Z,49.82
2018-11-11T12:05:46.078Z,49.63
2018-11-11T12:08:15.057Z,49.57
2018-11-11T12:10:44.122Z,49.63
2018-11-11T12:13:13.929Z,49.23
2018-11-11T12:15:43.201Z,49.59
2018-11-11T12:18:12.147Z,49.50
2018-11-11T12:20:41.457Z,49.58
2018-11-11T12:23:11.156Z,49.38
2018-11-11T12:25:40.396Z,49.56
2018-11-11T12:28:09.621Z,49.22
2018-11-11T12:30:38.538Z,48.79
2018-11-11T12:33:07.451Z,48.67
2018-11-11T12:35:36.318Z,48.79
2018-11-11T12:38:05.577Z,49.04
2018-11-11T12:40:34.609Z,48.42
2018-11-11T12:43:03.602Z,48.34
2018-11-11T12:45:32.509Z,48.16
2018-11-11T12:48:01.376Z,48.33
2018-11-11T12:50:30.443Z,48.30
2018-11-11T12:52:59.225Z,48.25
2018-11-11T12:55:28.255Z,47.75
2018-11-11T12:57:57.213Z,47.88
2018-11-11T13:00:26.108Z,47.56
2018-11-11T13:02:55.038Z,47.67
2018-11-11T13:05:23.950Z,47.95
2018-11-11T13:07:52.950Z,47.64
2018-11-11T13:10:21.791Z,47.43
2018-11-11T13:12:50.692Z,47.57
2018-11-11T13:15:19.679Z,47.74
2018-11-11T13:17:48.641Z,47.50
2018-11-11T13:20:18.680Z,47.54
2018-11-11T13:22:47.726Z,47.49
2018-11-11T13:25:16.730Z,47.60
2018-11-11T13:27:45.760Z,47.38
2018-11-11T13:30:15.456Z,47.37
2018-11-11T13:32:44.446Z,47.16
2018-11-11T13:35:14.742Z,46.92
2018-11-11T13:37:44.025Z,47.08
2018-11-11T13:40:15.326Z,46.86
2018-11-11T13:42:44.244Z,47.00
2018-11-11T13:45:15.812Z,46.97
2018-11-11T13:47:45.793Z,46.93
2018-11-11T13:50:17.083Z,46.83
2018-11-11T13:52:46.679Z,46.94
2018-11-11T13:55:16.187Z,46.95
2018-11-11T13:57:45.708Z,47.00
2018-11-11T14:00:18.018Z,47.10
2018-11-11T14:02:47.113Z,47.42
2018-11-11T14:05:16.205Z,46.93
2018-11-11T14:07:45.278Z,47.38
2018-11-11T14:10:14.912Z,47.41
2018-11-11T14:12:43.814Z,47.40
2018-11-11T14:15:24.169Z,47.45
2018-11-11T14:17:53.781Z,47.30
2018-11-11T14:20:23.878Z,47.16
2018-11-11T14:22:54.096Z,47.42
2018-11-11T14:25:25.721Z,47.75
2018-11-11T14:27:54.600Z,47.55
2018-11-11T14:30:26.502Z,47.66
2018-11-11T14:32:56.416Z,47.82
2018-11-11T14:35:25.344Z,47.72
2018-11-11T14:37:54.383Z,47.80
2018-11-11T14:40:26.466Z,48.21
2018-11-11T14:42:55.394Z,48.13
2018-11-11T14:45:24.765Z,48.05
2018-11-11T14:47:54.651Z,48.22
2018-11-11T14:50:24.532Z,48.46
2018-11-11T14:52:53.635Z,48.20
2018-11-11T14:55:29.553Z,48.48
2018-11-11T14:57:59.550Z,48.50
2018-11-11T15:00:29.891Z,48.59
2018-11-11T15:03:03.113Z,48.40
2018-11-11T15:05:32.255Z,48.87
2018-11-11T15:08:01.244Z,49.05
2018-11-11T15:10:30.282Z,49.12
2018-11-11T15:12:59.694Z,49.38
2018-11-11T15:15:28.711Z,49.63
2018-11-11T15:17:58.906Z,49.73
2018-11-11T15:20:28.944Z,49.60
2018-11-11T15:22:57.894Z,50.34
2018-11-11T15:25:28.093Z,50.54
2018-11-11T15:27:57.032Z,50.18
2018-11-11T15:30:28.148Z,50.62
2018-11-11T15:32:57.920Z,50.53
2018-11-11T15:35:26.878Z,50.34
2018-11-11T15:37:55.818Z,50.58
2018-11-11T15:40:26.235Z,50.90
2018-11-11T15:42:55.394Z,50.63
2018-11-11T15:45:25.744Z,51.37
2018-11-11T15:47:54.956Z,51.59
2018-11-11T15:50:25.043Z,51.72
2018-11-11T15:52:55.203Z,51.92
2018-11-11T15:55:25.399Z,52.76
2018-11-11T15:57:54.556Z,52.20
2018-11-11T16:00:27.624Z,52.02
2018-11-11T16:02:56.631Z,51.75
2018-11-11T16:05:25.607Z,52.33
2018-11-11T16:07:55.430Z,52.04
2018-11-11T16:10:25.662Z,52.01
2018-11-11T16:12:54.658Z,52.44
2018-11-11T16:15:28.497Z,52.28
2018-11-11T16:17:59.993Z,52.37
2018-11-11T16:20:29.948Z,51.82
2018-11-11T16:22:59.928Z,51.73
2018-11-11T16:25:28.997Z,51.84
2018-11-11T16:27:58.235Z,52.29
2018-11-11T16:30:28.517Z,52.56
2018-11-11T16:32:58.015Z,52.63
2018-11-11T16:35:27.742Z,53.05
2018-11-11T16:38:03.605Z,53.02
2018-11-11T16:40:35.219Z,53.36
2018-11-11T16:43:04.538Z,53.65
2018-11-11T16:45:34.654Z,54.44
2018-11-11T16:48:03.842Z,53.66
2018-11-11T16:50:33.746Z,54.29
2018-11-11T16:53:04.487Z,53.89
2018-11-11T16:55:34.326Z,54.28
2018-11-11T16:58:03.510Z,54.34
2018-11-11T17:00:33.945Z,54.33
2018-11-11T17:03:03.753Z,54.50
2018-11-11T17:05:34.851Z,54.92
2018-11-11T17:08:04.629Z,54.49
2018-11-11T17:10:34.987Z,54.78
2018-11-11T17:13:06.674Z,68.85
2018-11-11T17:15:35.722Z,59.57
2018-11-11T17:18:04.859Z,60.67
2018-11-11T17:20:33.909Z,55.07
2018-11-11T17:23:05.176Z,53.92
2018-11-11T17:25:35.140Z,54.03
2018-11-11T17:28:05.718Z,71.01
2018-11-11T17:30:34.854Z,55.89
2018-11-11T17:33:05.231Z,54.11
2018-11-11T17:35:34.327Z,66.54
2018-11-11T17:38:03.373Z,54.97
2018-11-11T17:40:32.587Z,54.58
2018-11-11T17:43:02.059Z,54.73
2018-11-11T17:45:30.942Z,54.36
2018-11-11T17:47:59.921Z,53.80
2018-11-11T17:50:30.270Z,53.76
2018-11-11T17:53:00.139Z,54.25
2018-11-11T17:55:29.829Z,53.70
2018-11-11T17:57:58.990Z,53.71
2018-11-11T18:00:29.291Z,54.39
2018-11-11T18:03:01.147Z,54.81
2018-11-11T18:05:31.970Z,55.60
2018-11-11T18:08:01.072Z,55.99
2018-11-11T18:10:30.086Z,55.17
2018-11-11T18:12:59.016Z,55.91
2018-11-11T18:15:30.213Z,55.34
2018-11-11T18:18:00.449Z,54.62
2018-11-11T18:20:30.871Z,54.58
2018-11-11T18:23:00.753Z,54.57
2018-11-11T18:25:30.294Z,54.68
2018-11-11T18:27:59.447Z,55.07
2018-11-11T18:30:31.998Z,54.99
2018-11-11T18:33:01.163Z,54.76
2018-11-11T18:35:30.305Z,54.81
2018-11-11T18:37:59.293Z,54.71
2018-11-11T18:40:29.134Z,55.11
2018-11-11T18:42:58.277Z,54.91
2018-11-11T18:45:29.919Z,55.41
2018-11-11T18:47:59.177Z,54.97
2018-11-11T18:50:30.404Z,54.96
2018-11-11T18:52:59.557Z,55.41
2018-11-11T18:55:28.769Z,55.22
2018-11-11T18:57:57.910Z,55.44
2018-11-11T19:00:30.185Z,55.81
2018-11-11T19:02:59.494Z,55.98
2018-11-11T19:05:29.124Z,55.90
2018-11-11T19:07:58.503Z,56.09
2018-11-11T19:10:28.891Z,56.15
2018-11-11T19:12:59.799Z,56.71
2018-11-11T19:15:28.853Z,56.46
2018-11-11T19:17:58.828Z,55.95
2018-11-11T19:20:28.456Z,56.19
2018-11-11T19:22:58.665Z,56.49
2018-11-11T19:25:28.938Z,56.22
2018-11-11T19:27:58.981Z,56.15
2018-11-11T19:30:28.722Z,56.30
2018-11-11T19:32:57.719Z,56.10
2018-11-11T19:35:26.790Z,56.37
2018-11-11T19:37:56.892Z,56.76
2018-11-11T19:40:27.314Z,56.65
2018-11-11T19:42:57.683Z,56.74
2018-11-11T19:45:28.853Z,56.52
2018-11-11T19:47:58.230Z,56.57
2018-11-11T19:50:28.253Z,56.73
2018-11-11T19:52:57.898Z,56.96
2018-11-11T19:55:26.874Z,57.21
2018-11-11T19:57:57.522Z,56.77
2018-11-11T20:00:29.933Z,57.42
2018-11-11T20:02:59.907Z,57.39
2018-11-11T20:05:28.970Z,57.36
2018-11-11T20:07:59.204Z,57.87
2018-11-11T20:10:28.947Z,57.55
2018-11-11T20:12:58.285Z,57.11
2018-11-11T20:15:30.541Z,57.15
2018-11-11T20:17:59.776Z,57.47
2018-11-11T20:20:30.921Z,57.29
2018-11-11T20:22:59.848Z,57.45
2018-11-11T20:25:29.081Z,57.54
2018-11-11T20:27:58.158Z,57.65
2018-11-11T20:30:28.441Z,57.57
2018-11-11T20:32:57.433Z,57.64
2018-11-11T20:35:27.931Z,57.84
2018-11-11T20:37:56.946Z,58.20
2018-11-11T20:40:26.796Z,57.84
2018-11-11T20:42:56.447Z,58.34
2018-11-11T20:45:27.113Z,58.18
2018-11-11T20:47:56.984Z,58.24
2018-11-11T20:50:27.121Z,58.12
2018-11-11T20:52:59.244Z,57.92
2018-11-11T20:55:28.996Z,57.59
2018-11-11T20:57:58.170Z,57.25
2018-11-11T21:00:28.488Z,57.31
2018-11-11T21:02:57.950Z,57.33
2018-11-11T21:05:28.602Z,58.05
2018-11-11T21:07:58.647Z,57.35
2018-11-11T21:10:28.689Z,57.89
2018-11-11T21:12:58.328Z,57.41
2018-11-11T21:15:28.689Z,57.60
2018-11-11T21:17:58.347Z,57.73
2018-11-11T21:20:28.583Z,57.33
2018-11-11T21:22:57.534Z,57.44
2018-11-11T21:25:26.623Z,57.63
2018-11-11T21:27:55.537Z,57.75
2018-11-11T21:30:25.818Z,58.22
2018-11-11T21:32:55.397Z,57.99
2018-11-11T21:35:24.297Z,57.85
2018-11-11T21:37:53.240Z,58.02
2018-11-11T21:40:23.348Z,57.88
2018-11-11T21:42:53.232Z,57.99
2018-11-11T21:45:23.216Z,58.11
2018-11-11T21:47:52.238Z,57.35
2018-11-11T21:50:22.389Z,57.33
2018-11-11T21:53:05.125Z,57.72
2018-11-11T21:55:33.953Z,57.64
2018-11-11T21:58:02.911Z,57.25
2018-11-11T22:00:31.971Z,57.74
2018-11-11T22:03:00.978Z,57.26
2018-11-11T22:05:29.963Z,57.40
2018-11-11T22:07:58.850Z,57.50
2018-11-11T22:10:27.765Z,57.86
2018-11-11T22:12:56.630Z,57.77
2018-11-11T22:15:25.552Z,57.45
2018-11-11T22:17:54.377Z,57.39
2018-11-11T22:20:23.299Z,57.29
2018-11-11T22:22:52.165Z,57.30
2018-11-11T22:25:21.150Z,57.52
2018-11-11T22:27:50.267Z,57.61
2018-11-11T22:30:19.335Z,57.78
2018-11-11T22:32:48.307Z,57.85
2018-11-11T22:35:17.265Z,57.47
2018-11-11T22:37:46.196Z,56.97
2018-11-11T22:40:15.200Z,56.88
2018-11-11T22:42:44.150Z,57.12
2018-11-11T22:45:14.270Z,58.07
2018-11-11T22:47:43.466Z,58.38
2018-11-11T22:50:14.271Z,58.87
2018-11-11T22:52:43.464Z,58.89
2018-11-11T22:55:12.718Z,59.18
2018-11-11T22:57:42.225Z,58.91
2018-11-11T23:00:18.370Z,59.41
2018-11-11T23:02:47.244Z,59.13
2018-11-11T23:05:17.496Z,59.45
2018-11-11T23:07:46.684Z,58.95
2018-11-11T23:10:16.658Z,58.95
2018-11-11T23:12:45.580Z,58.65
2018-11-11T23:15:16.006Z,58.61
2018-11-11T23:17:44.973Z,58.23
2018-11-11T23:20:15.413Z,58.74
2018-11-11T23:22:44.510Z,58.36
2018-11-11T23:25:14.848Z,58.25
2018-11-11T23:27:43.942Z,58.44
2018-11-11T23:30:16.916Z,58.28
2018-11-11T23:32:46.171Z,59.01
2018-11-11T23:35:15.110Z,59.12
2018-11-11T23:37:44.388Z,59.86
2018-11-11T23:40:14.691Z,60.59
2018-11-11T23:42:44.214Z,61.52
2018-11-11T23:45:13.111Z,61.07
2018-11-11T23:47:45.020Z,60.61
2018-11-11T23:50:15.362Z,60.61
2018-11-11T23:52:44.698Z,60.57
2018-11-11T23:55:14.747Z,60.44
2018-11-11T23:57:43.649Z,59.78
